Search for airport 
image banner adimage banner adimage banner ad
image banner ad

PS43 - Barnes Farmland

Located in Volant, United States

ICAO - PS43, IATA -

Data provided by Airmate  

General information

Coordinates: N41°4'44" W80°15'20"
Elevation is 1280 feet MSL.
Magnetic variation is -08° East
View others Airports in Pennsylvania

Operational data

Special qualification required
Current time UTC:
Current local time:
Weather at : KUCP - New Castle Muni ( 15 km )
METAR: KUCP 182156Z AUTO 17003KT 10SM CLR 27/08 A3029 RMK AO2 SLP268 T02670078
View NOTAMs / SUP AIP / TFR affecting this airport [VIEW]
Communications frequencies: [VIEW]

Runways:

RWY identifierQFULength (ft)Width (ft)SurfaceLDA (ft)
09225080GRASS
27225080GRASS

Airport contact information

Address: Volant United States

Satellite view of PS43